sensor_id;sensor_type;location;lat;lon;timestamp;temperature;humidity
30336;DHT22;17142;47.990;7.846;2023-02-08T00:02:22;-0.40;99.90
30336;DHT22;17142;47.990;7.846;2023-02-08T00:04:49;-0.50;99.90
30336;DHT22;17142;47.990;7.846;2023-02-08T00:07:15;-0.20;99.90
30336;DHT22;17142;47.990;7.846;2023-02-08T00:09:45;-0.20;99.90
30336;DHT22;17142;47.990;7.846;2023-02-08T00:12:11;-0.10;99.90
30336;DHT22;17142;47.990;7.846;2023-02-08T00:14:36;-0.20;99.90
30336;DHT22;17142;47.990;7.846;2023-02-08T00:17:04;-0.10;99.80
30336;DHT22;17142;47.990;7.846;2023-02-08T00:19:30;0.00;99.00
30336;DHT22;17142;47.990;7.846;2023-02-08T00:21:58;0.00;98.90
30336;DHT22;17142;47.990;7.846;2023-02-08T00:24:23;-0.10;98.40
30336;DHT22;17142;47.990;7.846;2023-02-08T00:26:49;-0.20;98.30
30336;DHT22;17142;47.990;7.846;2023-02-08T00:29:17;-0.10;97.70
30336;DHT22;17142;47.990;7.846;2023-02-08T00:31:42;-0.20;97.70
30336;DHT22;17142;47.990;7.846;2023-02-08T00:34:10;0.10;96.50
30336;DHT22;17142;47.990;7.846;2023-02-08T00:36:36;0.00;96.50
30336;DHT22;17142;47.990;7.846;2023-02-08T00:39:06;-0.10;96.00
30336;DHT22;17142;47.990;7.846;2023-02-08T00:41:33;-0.10;95.70
30336;DHT22;17142;47.990;7.846;2023-02-08T00:44:01;-0.20;95.70
30336;DHT22;17142;47.990;7.846;2023-02-08T00:46:29;-0.20;95.20
30336;DHT22;17142;47.990;7.846;2023-02-08T00:48:57;-0.10;93.90
30336;DHT22;17142;47.990;7.846;2023-02-08T00:51:23;-0.10;93.80
30336;DHT22;17142;47.990;7.846;2023-02-08T00:53:48;-0.30;94.00
30336;DHT22;17142;47.990;7.846;2023-02-08T00:56:15;-0.50;94.20
30336;DHT22;17142;47.990;7.846;2023-02-08T00:58:41;-0.40;93.40
30336;DHT22;17142;47.990;7.846;2023-02-08T01:01:07;-0.30;93.30
30336;DHT22;17142;47.990;7.846;2023-02-08T01:03:34;-0.30;93.00
30336;DHT22;17142;47.990;7.846;2023-02-08T01:06:08;-0.40;92.90
30336;DHT22;17142;47.990;7.846;2023-02-08T01:08:34;-0.30;91.90
30336;DHT22;17142;47.990;7.846;2023-02-08T01:11:19;-0.30;90.90
30336;DHT22;17142;47.990;7.846;2023-02-08T01:13:50;-0.40;90.60
30336;DHT22;17142;47.990;7.846;2023-02-08T06:23:22;-5.60;99.90
30336;DHT22;17142;47.990;7.846;2023-02-08T06:25:50;-5.70;99.90
30336;DHT22;17142;47.990;7.846;2023-02-08T06:28:16;-5.70;99.90
30336;DHT22;17142;47.990;7.846;2023-02-08T06:30:44;-5.70;99.90
30336;DHT22;17142;47.990;7.846;2023-02-08T06:33:12;-5.70;99.90
30336;DHT22;17142;47.990;7.846;2023-02-08T06:35:37;-5.70;99.90
30336;DHT22;17142;47.990;7.846;2023-02-08T06:38:03;-5.70;99.90
30336;DHT22;17142;47.990;7.846;2023-02-08T06:40:28;-5.80;99.90
30336;DHT22;17142;47.990;7.846;2023-02-08T06:42:54;-5.70;99.90
30336;DHT22;17142;47.990;7.846;2023-02-08T06:45:20;-5.60;99.90
30336;DHT22;17142;47.990;7.846;2023-02-08T06:47:45;-5.60;99.90
30336;DHT22;17142;47.990;7.846;2023-02-08T06:50:11;-5.50;99.90
30336;DHT22;17142;47.990;7.846;2023-02-08T06:52:36;-5.50;99.90
30336;DHT22;17142;47.990;7.846;2023-02-08T06:55:02;-5.40;99.90
30336;DHT22;17142;47.990;7.846;2023-02-08T06:57:30;-5.40;99.90
30336;DHT22;17142;47.990;7.846;2023-02-08T06:59:56;-5.40;99.90
30336;DHT22;17142;47.990;7.846;2023-02-08T07:02:23;-5.50;99.90
30336;DHT22;17142;47.990;7.846;2023-02-08T07:04:51;-5.50;99.90
30336;DHT22;17142;47.990;7.846;2023-02-08T07:07:19;-5.50;99.90
30336;DHT22;17142;47.990;7.846;2023-02-08T07:09:48;-5.40;99.90
30336;DHT22;17142;47.990;7.846;2023-02-08T07:12:16;-5.40;99.90
30336;DHT22;17142;47.990;7.846;2023-02-08T07:14:42;-5.30;99.90
30336;DHT22;17142;47.990;7.846;2023-02-08T07:17:09;-5.30;99.90
30336;DHT22;17142;47.990;7.846;2023-02-08T07:19:38;-5.20;99.90
30336;DHT22;17142;47.990;7.846;2023-02-08T07:22:04;-5.20;99.90
30336;DHT22;17142;47.990;7.846;2023-02-08T07:24:37;-5.20;99.90
30336;DHT22;17142;47.990;7.846;2023-02-08T07:27:06;-5.10;99.90
30336;DHT22;17142;47.990;7.846;2023-02-08T07:29:33;-5.00;99.90
30336;DHT22;17142;47.990;7.846;2023-02-08T07:32:00;-4.90;99.90
30336;DHT22;17142;47.990;7.846;2023-02-08T07:34:28;-4.80;99.90
30336;DHT22;17142;47.990;7.846;2023-02-08T07:36:56;-4.80;99.90
30336;DHT22;17142;47.990;7.846;2023-02-08T07:39:22;-4.70;99.90
30336;DHT22;17142;47.990;7.846;2023-02-08T07:41:48;-4.70;99.90
30336;DHT22;17142;47.990;7.846;2023-02-08T07:44:13;-4.60;99.90
30336;DHT22;17142;47.990;7.846;2023-02-08T07:46:39;-4.60;99.90
30336;DHT22;17142;47.990;7.846;2023-02-08T07:49:05;-4.50;99.90
30336;DHT22;17142;47.990;7.846;2023-02-08T07:51:31;-4.50;99.90
30336;DHT22;17142;47.990;7.846;2023-02-08T07:53:56;-4.40;99.90
30336;DHT22;17142;47.990;7.846;2023-02-08T07:56:22;-4.40;99.90
30336;DHT22;17142;47.990;7.846;2023-02-08T07:58:48;-4.30;99.90
30336;DHT22;17142;47.990;7.846;2023-02-08T08:01:13;-4.20;99.90
30336;DHT22;17142;47.990;7.846;2023-02-08T08:03:39;-4.20;99.90
30336;DHT22;17142;47.990;7.846;2023-02-08T08:06:05;-4.10;99.90
30336;DHT22;17142;47.990;7.846;2023-02-08T08:08:30;-4.00;99.90
30336;DHT22;17142;47.990;7.846;2023-02-08T08:10:56;-3.90;99.90
30336;DHT22;17142;47.990;7.846;2023-02-08T08:13:22;-3.80;99.90
30336;DHT22;17142;47.990;7.846;2023-02-08T08:15:48;-3.70;99.90
30336;DHT22;17142;47.990;7.846;2023-02-08T08:18:13;-3.60;99.90
30336;DHT22;17142;47.990;7.846;2023-02-08T08:20:39;-3.50;99.90
30336;DHT22;17142;47.990;7.846;2023-02-08T08:23:05;-3.40;99.90
30336;DHT22;17142;47.990;7.846;2023-02-08T08:25:31;-3.30;99.90
30336;DHT22;17142;47.990;7.846;2023-02-08T08:27:59;-3.20;99.90
30336;DHT22;17142;47.990;7.846;2023-02-08T08:30:29;-3.20;99.90
30336;DHT22;17142;47.990;7.846;2023-02-08T08:32:55;-3.10;99.90
30336;DHT22;17142;47.990;7.846;2023-02-08T08:35:21;-3.00;99.90
30336;DHT22;17142;47.990;7.846;2023-02-08T08:37:46;-2.90;99.90
30336;DHT22;17142;47.990;7.846;2023-02-08T08:40:14;-2.80;99.90
30336;DHT22;17142;47.990;7.846;2023-02-08T08:42:42;-2.80;99.90
30336;DHT22;17142;47.990;7.846;2023-02-08T08:45:08;-2.60;99.90
30336;DHT22;17142;47.990;7.846;2023-02-08T08:47:34;-2.30;99.90
30336;DHT22;17142;47.990;7.846;2023-02-08T08:50:02;-2.30;99.90
30336;DHT22;17142;47.990;7.846;2023-02-08T08:52:28;-2.30;99.90
30336;DHT22;17142;47.990;7.846;2023-02-08T08:54:53;-2.40;99.90
30336;DHT22;17142;47.990;7.846;2023-02-08T08:57:19;-2.40;99.90
30336;DHT22;17142;47.990;7.846;2023-02-08T08:59:44;-2.30;99.90
30336;DHT22;17142;47.990;7.846;2023-02-08T09:02:12;-2.30;99.90
30336;DHT22;17142;47.990;7.846;2023-02-08T09:04:37;-2.20;99.90
30336;DHT22;17142;47.990;7.846;2023-02-08T09:07:05;-2.00;99.90
30336;DHT22;17142;47.990;7.846;2023-02-08T09:09:31;-1.70;99.90
30336;DHT22;17142;47.990;7.846;2023-02-08T09:11:56;-1.30;99.90
30336;DHT22;17142;47.990;7.846;2023-02-08T09:14:22;-1.10;99.90
30336;DHT22;17142;47.990;7.846;2023-02-08T09:16:48;-0.80;99.90
30336;DHT22;17142;47.990;7.846;2023-02-08T09:19:14;-0.60;99.90
30336;DHT22;17142;47.990;7.846;2023-02-08T09:21:40;-0.50;99.90
30336;DHT22;17142;47.990;7.846;2023-02-08T09:24:06;-0.40;99.90
30336;DHT22;17142;47.990;7.846;2023-02-08T09:26:32;-0.30;99.90
30336;DHT22;17142;47.990;7.846;2023-02-08T09:29:02;-0.30;99.90
30336;DHT22;17142;47.990;7.846;2023-02-08T09:31:31;-0.40;99.90
30336;DHT22;17142;47.990;7.846;2023-02-08T09:33:58;-0.50;99.90
30336;DHT22;17142;47.990;7.846;2023-02-08T09:36:28;-0.60;99.90
30336;DHT22;17142;47.990;7.846;2023-02-08T09:38:58;-0.60;99.90
30336;DHT22;17142;47.990;7.846;2023-02-08T09:44:29;-0.80;99.90
30336;DHT22;17142;47.990;7.846;2023-02-08T09:47:15;-0.80;99.90
30336;DHT22;17142;47.990;7.846;2023-02-08T09:52:40;-0.90;99.90
30336;DHT22;17142;47.990;7.846;2023-02-08T09:57:46;-0.70;99.90
30336;DHT22;17142;47.990;7.846;2023-02-08T10:00:18;-0.70;99.90
30336;DHT22;17142;47.990;7.846;2023-02-08T10:02:48;-0.60;99.90
30336;DHT22;17142;47.990;7.846;2023-02-08T10:05:19;-0.60;99.90
30336;DHT22;17142;47.990;7.846;2023-02-08T10:07:45;-0.50;99.90
30336;DHT22;17142;47.990;7.846;2023-02-08T10:10:34;-0.40;99.90
30336;DHT22;17142;47.990;7.846;2023-02-08T10:16:18;-0.30;99.90
30336;DHT22;17142;47.990;7.846;2023-02-08T10:24:20;-0.20;99.90
30336;DHT22;17142;47.990;7.846;2023-02-08T10:34:58;0.30;99.90
30336;DHT22;17142;47.990;7.846;2023-02-08T10:37:30;0.30;99.90
30336;DHT22;17142;47.990;7.846;2023-02-08T10:40:13;0.30;99.90
30336;DHT22;17142;47.990;7.846;2023-02-08T10:42:42;0.30;99.90
30336;DHT22;17142;47.990;7.846;2023-02-08T10:45:30;0.40;99.90
30336;DHT22;17142;47.990;7.846;2023-02-08T10:48:05;0.50;99.90
30336;DHT22;17142;47.990;7.846;2023-02-08T10:50:39;0.50;99.90
30336;DHT22;17142;47.990;7.846;2023-02-08T10:53:12;0.60;99.90
30336;DHT22;17142;47.990;7.846;2023-02-08T10:55:40;0.70;99.90
30336;DHT22;17142;47.990;7.846;2023-02-08T10:58:12;0.80;99.90
30336;DHT22;17142;47.990;7.846;2023-02-08T11:00:42;0.70;99.40
30336;DHT22;17142;47.990;7.846;2023-02-08T11:03:23;0.80;99.30
30336;DHT22;17142;47.990;7.846;2023-02-08T11:05:52;0.90;99.10
30336;DHT22;17142;47.990;7.846;2023-02-08T11:08:20;0.90;98.70
30336;DHT22;17142;47.990;7.846;2023-02-08T11:11:05;1.00;98.60
30336;DHT22;17142;47.990;7.846;2023-02-08T11:13:43;1.10;98.70
30336;DHT22;17142;47.990;7.846;2023-02-08T11:16:12;1.20;98.20
30336;DHT22;17142;47.990;7.846;2023-02-08T11:18:51;1.30;97.80
30336;DHT22;17142;47.990;7.846;2023-02-08T11:21:38;1.40;97.30
30336;DHT22;17142;47.990;7.846;2023-02-08T11:24:38;1.40;96.80
30336;DHT22;17142;47.990;7.846;2023-02-08T11:27:38;1.50;95.40
30336;DHT22;17142;47.990;7.846;2023-02-08T11:32:40;1.50;93.10
30336;DHT22;17142;47.990;7.846;2023-02-08T11:35:35;1.50;92.50
30336;DHT22;17142;47.990;7.846;2023-02-08T11:38:04;1.60;92.90
30336;DHT22;17142;47.990;7.846;2023-02-08T11:40:42;1.60;92.60
30336;DHT22;17142;47.990;7.846;2023-02-08T11:43:21;1.70;91.80
30336;DHT22;17142;47.990;7.846;2023-02-08T11:45:49;1.70;91.80
30336;DHT22;17142;47.990;7.846;2023-02-08T11:48:42;1.70;91.50
30336;DHT22;17142;47.990;7.846;2023-02-08T11:51:07;1.70;90.80
30336;DHT22;17142;47.990;7.846;2023-02-08T11:53:35;1.70;91.10
30336;DHT22;17142;47.990;7.846;2023-02-08T11:58:32;1.80;92.30
30336;DHT22;17142;47.990;7.846;2023-02-08T12:03:37;1.90;92.60
30336;DHT22;17142;47.990;7.846;2023-02-08T12:08:42;2.10;92.80
30336;DHT22;17142;47.990;7.846;2023-02-08T12:14:07;2.20;93.90
30336;DHT22;17142;47.990;7.846;2023-02-08T12:22:26;2.50;93.60
30336;DHT22;17142;47.990;7.846;2023-02-08T12:33:22;2.40;93.50
30336;DHT22;17142;47.990;7.846;2023-02-08T12:44:42;2.40;93.40
30336;DHT22;17142;47.990;7.846;2023-02-08T12:52:46;2.50;93.20
30336;DHT22;17142;47.990;7.846;2023-02-08T12:55:25;2.50;93.60
30336;DHT22;17142;47.990;7.846;2023-02-08T12:57:56;2.60;93.40
30336;DHT22;17142;47.990;7.846;2023-02-08T13:00:31;2.60;93.50
30336;DHT22;17142;47.990;7.846;2023-02-08T13:05:46;2.70;93.50
30336;DHT22;17142;47.990;7.846;2023-02-08T13:14:05;2.60;93.00
30336;DHT22;17142;47.990;7.846;2023-02-08T13:16:44;2.70;92.80
30336;DHT22;17142;47.990;7.846;2023-02-08T13:21:58;2.60;92.50
30336;DHT22;17142;47.990;7.846;2023-02-08T13:26:58;2.60;92.80
30336;DHT22;17142;47.990;7.846;2023-02-08T13:29:24;2.70;92.70
30336;DHT22;17142;47.990;7.846;2023-02-08T13:31:55;2.70;92.70
30336;DHT22;17142;47.990;7.846;2023-02-08T13:34:41;2.70;92.80
30336;DHT22;17142;47.990;7.846;2023-02-08T13:37:22;2.80;92.30
30336;DHT22;17142;47.990;7.846;2023-02-08T13:39:48;2.80;92.60
30336;DHT22;17142;47.990;7.846;2023-02-08T13:44:57;2.90;92.30
30336;DHT22;17142;47.990;7.846;2023-02-08T13:47:43;2.90;92.30
30336;DHT22;17142;47.990;7.846;2023-02-08T13:53:01;2.90;91.60
30336;DHT22;17142;47.990;7.846;2023-02-08T14:03:34;2.90;92.30
30336;DHT22;17142;47.990;7.846;2023-02-08T14:14:37;2.80;91.50
30336;DHT22;17142;47.990;7.846;2023-02-08T14:19:36;2.80;91.20
30336;DHT22;17142;47.990;7.846;2023-02-08T14:24:46;2.80;91.80
30336;DHT22;17142;47.990;7.846;2023-02-08T14:27:28;2.90;91.80
30336;DHT22;17142;47.990;7.846;2023-02-08T14:32:32;2.90;91.30
30336;DHT22;17142;47.990;7.846;2023-02-08T14:35:03;3.00;91.00
30336;DHT22;17142;47.990;7.846;2023-02-08T14:37:32;3.00;91.10
30336;DHT22;17142;47.990;7.846;2023-02-08T14:42:58;3.00;91.10
30336;DHT22;17142;47.990;7.846;2023-02-08T14:45:34;3.00;91.00
30336;DHT22;17142;47.990;7.846;2023-02-08T14:51:15;2.90;91.20
30336;DHT22;17142;47.990;7.846;2023-02-08T14:59:16;2.90;91.00
30336;DHT22;17142;47.990;7.846;2023-02-08T15:01:44;2.80;91.30
30336;DHT22;17142;47.990;7.846;2023-02-08T15:04:13;2.80;91.20
30336;DHT22;17142;47.990;7.846;2023-02-08T15:09:24;2.70;91.20
30336;DHT22;17142;47.990;7.846;2023-02-08T15:12:01;2.70;91.30
30336;DHT22;17142;47.990;7.846;2023-02-08T15:14:28;2.70;91.40
30336;DHT22;17142;47.990;7.846;2023-02-08T15:16:57;2.70;91.40
30336;DHT22;17142;47.990;7.846;2023-02-08T15:19:31;2.70;91.50
30336;DHT22;17142;47.990;7.846;2023-02-08T15:24:59;2.60;91.70
30336;DHT22;17142;47.990;7.846;2023-02-08T15:27:31;2.60;91.60
30336;DHT22;17142;47.990;7.846;2023-02-08T15:29:57;2.50;91.80
30336;DHT22;17142;47.990;7.846;2023-02-08T15:32:24;2.50;92.00
30336;DHT22;17142;47.990;7.846;2023-02-08T15:34:56;2.40;92.10
30336;DHT22;17142;47.990;7.846;2023-02-08T15:37:29;2.40;92.30
30336;DHT22;17142;47.990;7.846;2023-02-08T15:39:58;2.30;92.50
30336;DHT22;17142;47.990;7.846;2023-02-08T15:42:28;2.30;92.40
30336;DHT22;17142;47.990;7.846;2023-02-08T15:44:56;2.30;92.70
30336;DHT22;17142;47.990;7.846;2023-02-08T15:49:51;2.20;93.30
30336;DHT22;17142;47.990;7.846;2023-02-08T15:52:22;2.10;93.10
30336;DHT22;17142;47.990;7.846;2023-02-08T15:54:49;2.10;93.10
30336;DHT22;17142;47.990;7.846;2023-02-08T15:57:40;2.00;93.30
30336;DHT22;17142;47.990;7.846;2023-02-08T16:00:19;1.90;93.40
30336;DHT22;17142;47.990;7.846;2023-02-08T16:03:15;1.90;93.60
30336;DHT22;17142;47.990;7.846;2023-02-08T16:05:50;1.80;93.70
30336;DHT22;17142;47.990;7.846;2023-02-08T16:08:24;2.00;99.90
30336;DHT22;17142;47.990;7.846;2023-02-08T16:11:10;2.50;99.90
30336;DHT22;17142;47.990;7.846;2023-02-08T16:13:40;2.90;99.90
30336;DHT22;17142;47.990;7.846;2023-02-08T16:18:59;2.70;97.20
30336;DHT22;17142;47.990;7.846;2023-02-08T16:24:05;1.90;97.00
30336;DHT22;17142;47.990;7.846;2023-02-08T16:26:46;1.50;97.60
30336;DHT22;17142;47.990;7.846;2023-02-08T16:29:19;1.10;98.30
30336;DHT22;17142;47.990;7.846;2023-02-08T16:31:59;0.90;99.20
30336;DHT22;17142;47.990;7.846;2023-02-08T16:34:26;0.70;99.90
30336;DHT22;17142;47.990;7.846;2023-02-08T16:36:52;0.50;99.90
30336;DHT22;17142;47.990;7.846;2023-02-08T16:39:35;0.30;99.90
30336;DHT22;17142;47.990;7.846;2023-02-08T16:42:05;0.10;99.90
30336;DHT22;17142;47.990;7.846;2023-02-08T16:44:35;-0.10;99.90
30336;DHT22;17142;47.990;7.846;2023-02-08T16:47:02;-0.30;99.90
30336;DHT22;17142;47.990;7.846;2023-02-08T16:49:48;-0.40;99.90
30336;DHT22;17142;47.990;7.846;2023-02-08T16:52:14;-0.60;99.90
30336;DHT22;17142;47.990;7.846;2023-02-08T16:54:40;-0.80;99.90
30336;DHT22;17142;47.990;7.846;2023-02-08T16:57:06;-0.90;99.90
30336;DHT22;17142;47.990;7.846;2023-02-08T16:59:33;-1.00;99.90
30336;DHT22;17142;47.990;7.846;2023-02-08T17:01:58;-1.20;99.90
30336;DHT22;17142;47.990;7.846;2023-02-08T17:04:24;-1.30;99.90
30336;DHT22;17142;47.990;7.846;2023-02-08T17:06:50;-1.30;99.90
30336;DHT22;17142;47.990;7.846;2023-02-08T17:09:15;-1.30;99.90
30336;DHT22;17142;47.990;7.846;2023-02-08T17:11:41;-1.40;99.90
30336;DHT22;17142;47.990;7.846;2023-02-08T17:14:07;-1.40;99.90
30336;DHT22;17142;47.990;7.846;2023-02-08T17:16:36;-1.50;99.90
30336;DHT22;17142;47.990;7.846;2023-02-08T17:19:05;-1.50;99.90
30336;DHT22;17142;47.990;7.846;2023-02-08T17:21:30;-1.60;99.90
30336;DHT22;17142;47.990;7.846;2023-02-08T17:23:57;-1.60;99.90
30336;DHT22;17142;47.990;7.846;2023-02-08T17:26:28;-1.60;99.90
30336;DHT22;17142;47.990;7.846;2023-02-08T17:28:55;-1.60;99.90
30336;DHT22;17142;47.990;7.846;2023-02-08T17:31:21;-1.60;99.90
30336;DHT22;17142;47.990;7.846;2023-02-08T17:33:47;-1.60;99.90
30336;DHT22;17142;47.990;7.846;2023-02-08T17:36:15;-1.70;99.90
30336;DHT22;17142;47.990;7.846;2023-02-08T17:38:42;-1.70;99.90
30336;DHT22;17142;47.990;7.846;2023-02-08T17:41:13;-1.80;99.90
30336;DHT22;17142;47.990;7.846;2023-02-08T17:43:42;-1.80;99.90
30336;DHT22;17142;47.990;7.846;2023-02-08T17:46:15;-1.80;99.90
30336;DHT22;17142;47.990;7.846;2023-02-08T17:48:41;-1.80;99.90
30336;DHT22;17142;47.990;7.846;2023-02-08T17:51:12;-1.90;99.90
30336;DHT22;17142;47.990;7.846;2023-02-08T17:53:43;-1.90;99.90
30336;DHT22;17142;47.990;7.846;2023-02-08T17:56:23;-1.80;99.90
30336;DHT22;17142;47.990;7.846;2023-02-08T17:58:53;-1.90;99.90
30336;DHT22;17142;47.990;7.846;2023-02-08T18:01:25;-1.70;99.90
30336;DHT22;17142;47.990;7.846;2023-02-08T18:03:51;-1.60;99.90
30336;DHT22;17142;47.990;7.846;2023-02-08T18:06:20;-1.50;99.90
30336;DHT22;17142;47.990;7.846;2023-02-08T18:08:50;-1.50;99.90
30336;DHT22;17142;47.990;7.846;2023-02-08T18:11:17;-1.40;99.90
30336;DHT22;17142;47.990;7.846;2023-02-08T18:13:51;-1.40;99.90
30336;DHT22;17142;47.990;7.846;2023-02-08T18:18:44;-1.30;99.90
30336;DHT22;17142;47.990;7.846;2023-02-08T18:21:21;-1.20;99.90
30336;DHT22;17142;47.990;7.846;2023-02-08T18:23:51;-1.20;99.90
30336;DHT22;17142;47.990;7.846;2023-02-08T18:26:20;-1.20;99.90
30336;DHT22;17142;47.990;7.846;2023-02-08T18:28:49;-1.20;99.90
30336;DHT22;17142;47.990;7.846;2023-02-08T18:31:16;-1.30;99.90
30336;DHT22;17142;47.990;7.846;2023-02-08T18:33:45;-1.30;99.90
30336;DHT22;17142;47.990;7.846;2023-02-08T18:36:11;-1.30;99.90
30336;DHT22;17142;47.990;7.846;2023-02-08T18:38:42;-1.30;99.90
30336;DHT22;17142;47.990;7.846;2023-02-08T18:41:14;-1.30;99.90
30336;DHT22;17142;47.990;7.846;2023-02-08T18:43:40;-1.40;99.90
30336;DHT22;17142;47.990;7.846;2023-02-08T18:46:11;-1.40;99.90
30336;DHT22;17142;47.990;7.846;2023-02-08T18:48:39;-1.40;99.90
30336;DHT22;17142;47.990;7.846;2023-02-08T18:51:06;-1.40;99.90
30336;DHT22;17142;47.990;7.846;2023-02-08T18:53:35;-1.30;99.90
30336;DHT22;17142;47.990;7.846;2023-02-08T18:56:05;-1.30;99.90
30336;DHT22;17142;47.990;7.846;2023-02-08T18:58:31;-1.40;99.90
30336;DHT22;17142;47.990;7.846;2023-02-08T19:01:05;-1.50;99.90
30336;DHT22;17142;47.990;7.846;2023-02-08T19:03:30;-1.50;99.90
30336;DHT22;17142;47.990;7.846;2023-02-08T19:06:05;-1.50;99.90
30336;DHT22;17142;47.990;7.846;2023-02-08T19:08:31;-1.50;99.90
30336;DHT22;17142;47.990;7.846;2023-02-08T19:10:57;-1.40;99.90
30336;DHT22;17142;47.990;7.846;2023-02-08T19:13:22;-1.40;99.90
30336;DHT22;17142;47.990;7.846;2023-02-08T19:15:48;-1.50;99.90
30336;DHT22;17142;47.990;7.846;2023-02-08T19:18:16;-1.60;99.90
30336;DHT22;17142;47.990;7.846;2023-02-08T19:20:41;-1.60;99.90
30336;DHT22;17142;47.990;7.846;2023-02-08T19:23:07;-1.50;99.90
30336;DHT22;17142;47.990;7.846;2023-02-08T19:25:36;-1.40;99.90
30336;DHT22;17142;47.990;7.846;2023-02-08T19:28:02;-1.30;99.90
30336;DHT22;17142;47.990;7.846;2023-02-08T19:30:30;-1.40;99.90
30336;DHT22;17142;47.990;7.846;2023-02-08T19:32:58;-1.50;99.90
30336;DHT22;17142;47.990;7.846;2023-02-08T19:35:23;-1.50;99.90
30336;DHT22;17142;47.990;7.846;2023-02-08T19:37:49;-1.60;99.90
30336;DHT22;17142;47.990;7.846;2023-02-08T19:40:18;-1.70;99.90
30336;DHT22;17142;47.990;7.846;2023-02-08T19:42:46;-1.70;99.90
30336;DHT22;17142;47.990;7.846;2023-02-08T19:45:13;-1.60;99.90
30336;DHT22;17142;47.990;7.846;2023-02-08T19:47:40;-1.60;99.90
30336;DHT22;17142;47.990;7.846;2023-02-08T19:50:06;-1.70;99.90
30336;DHT22;17142;47.990;7.846;2023-02-08T19:52:32;-1.70;99.90
30336;DHT22;17142;47.990;7.846;2023-02-08T19:55:00;-1.70;99.90
30336;DHT22;17142;47.990;7.846;2023-02-08T19:57:25;-1.80;99.90
30336;DHT22;17142;47.990;7.846;2023-02-08T19:59:51;-1.90;99.90
30336;DHT22;17142;47.990;7.846;2023-02-08T20:02:17;-2.00;99.90
30336;DHT22;17142;47.990;7.846;2023-02-08T20:04:46;-2.20;99.90
30336;DHT22;17142;47.990;7.846;2023-02-08T20:07:14;-1.80;99.90
30336;DHT22;17142;47.990;7.846;2023-02-08T20:09:39;-1.60;99.90
30336;DHT22;17142;47.990;7.846;2023-02-08T20:12:07;-1.70;99.90
30336;DHT22;17142;47.990;7.846;2023-02-08T20:14:35;-1.80;99.90
30336;DHT22;17142;47.990;7.846;2023-02-08T20:17:02;-1.80;99.90
30336;DHT22;17142;47.990;7.846;2023-02-08T20:19:33;-1.90;99.90
30336;DHT22;17142;47.990;7.846;2023-02-08T20:21:59;-1.90;99.90
30336;DHT22;17142;47.990;7.846;2023-02-08T20:24:25;-1.90;99.90
30336;DHT22;17142;47.990;7.846;2023-02-08T20:26:50;-1.90;99.90
30336;DHT22;17142;47.990;7.846;2023-02-08T20:29:18;-1.90;99.90
30336;DHT22;17142;47.990;7.846;2023-02-08T20:31:46;-2.00;99.90
30336;DHT22;17142;47.990;7.846;2023-02-08T20:34:14;-2.10;99.90
30336;DHT22;17142;47.990;7.846;2023-02-08T20:36:43;-2.00;99.90
30336;DHT22;17142;47.990;7.846;2023-02-08T20:39:15;-1.90;99.90
30336;DHT22;17142;47.990;7.846;2023-02-08T20:41:41;-1.90;99.90
30336;DHT22;17142;47.990;7.846;2023-02-08T20:44:13;-1.80;99.90
30336;DHT22;17142;47.990;7.846;2023-02-08T20:46:39;-1.80;99.90
30336;DHT22;17142;47.990;7.846;2023-02-08T20:49:10;-1.80;99.90
30336;DHT22;17142;47.990;7.846;2023-02-08T20:51:38;-1.80;99.90
30336;DHT22;17142;47.990;7.846;2023-02-08T20:54:06;-1.80;99.90
30336;DHT22;17142;47.990;7.846;2023-02-08T20:56:33;-1.90;99.90
30336;DHT22;17142;47.990;7.846;2023-02-08T20:59:08;-1.90;99.90
30336;DHT22;17142;47.990;7.846;2023-02-08T21:01:35;-1.80;99.90
30336;DHT22;17142;47.990;7.846;2023-02-08T21:04:02;-1.80;99.90
30336;DHT22;17142;47.990;7.846;2023-02-08T21:06:30;-1.80;99.90
30336;DHT22;17142;47.990;7.846;2023-02-08T21:08:58;-1.90;99.90
30336;DHT22;17142;47.990;7.846;2023-02-08T21:11:26;-1.90;99.90
30336;DHT22;17142;47.990;7.846;2023-02-08T21:13:53;-1.80;99.90
30336;DHT22;17142;47.990;7.846;2023-02-08T21:16:19;-1.80;99.90
30336;DHT22;17142;47.990;7.846;2023-02-08T21:18:47;-1.70;99.90
30336;DHT22;17142;47.990;7.846;2023-02-08T21:21:14;-1.70;99.90
30336;DHT22;17142;47.990;7.846;2023-02-08T21:23:40;-1.70;99.90
30336;DHT22;17142;47.990;7.846;2023-02-08T21:26:11;-1.80;99.90
30336;DHT22;17142;47.990;7.846;2023-02-08T21:28:37;-1.90;99.90
30336;DHT22;17142;47.990;7.846;2023-02-08T21:31:10;-1.80;99.90
30336;DHT22;17142;47.990;7.846;2023-02-08T21:33:43;-1.80;99.90
30336;DHT22;17142;47.990;7.846;2023-02-08T21:36:14;-1.80;99.90
30336;DHT22;17142;47.990;7.846;2023-02-08T21:38:43;-1.80;99.90
30336;DHT22;17142;47.990;7.846;2023-02-08T21:41:20;-1.90;99.90
30336;DHT22;17142;47.990;7.846;2023-02-08T21:43:47;-2.00;99.90
30336;DHT22;17142;47.990;7.846;2023-02-08T21:46:13;-2.00;99.90
30336;DHT22;17142;47.990;7.846;2023-02-08T21:48:41;-1.90;99.90
30336;DHT22;17142;47.990;7.846;2023-02-08T21:51:26;-1.90;99.90
30336;DHT22;17142;47.990;7.846;2023-02-08T21:54:22;-1.90;99.90
30336;DHT22;17142;47.990;7.846;2023-02-08T21:59:41;-1.60;99.90
